Time;durP1;ratioP1;P1;durP2;ratioP2;P2;SDS_P1;SDS_P2;PMS_P1;PMS_P2;Temp;Humidity;BMP_temperature;BMP_pressure;BME280_temperature;BME280_humidity;BME280_pressure;Samples;Min_cycle;Max_cycle;Signal;HPM_P1;HPM_P2
2022/09/23 07:45:58;;;;;;;;;;;;;;;7.93;100.00;99779.75;5107732;23;19925;-86
2022/09/23 07:48:24;;;;;;;;;;;;;;;7.95;100.00;99766.50;5021464;28;20024;-85
2022/09/23 07:50:49;;;;;;;;;;;;;;;7.93;100.00;99766.56;5005717;28;20603;-86
2022/09/23 07:53:15;;;;;;;;;;;;;;;7.93;100.00;99768.31;5006811;28;19921;-90
2022/09/23 07:55:40;;;;;;;;;;;;;;;7.96;100.00;99773.50;5007555;28;19929;-85
2022/09/23 07:58:05;;;;;;;;;;;;;;;7.95;100.00;99777.06;5007030;28;20008;-86
2022/09/23 08:00:31;;;;;;;;;;;;;;;7.96;100.00;99770.84;5023297;28;19921;-92
2022/09/23 08:02:56;;;;;;;;;;;;;;;8.02;100.00;99767.16;5024500;28;20418;-91
2022/09/23 08:05:22;;;;;;;;;;;;;;;7.99;100.00;99770.75;5006800;28;19979;-91
2022/09/23 08:07:48;;;;;;;;;;;;;;;8.05;100.00;99773.19;5024766;28;19963;-93
2022/09/23 08:10:19;;;;;;;;;;;;;;;8.11;100.00;99773.00;5024740;28;19928;-91
2022/09/23 08:12:45;;;;;;;;;;;;;;;8.15;100.00;99773.75;5006340;28;19925;-87
2022/09/23 08:15:10;;;;;;;;;;;;;;;8.17;100.00;99775.44;5022063;28;19917;-86
2022/09/23 08:17:36;;;;;;;;;;;;;;;8.02;100.00;99770.66;5006644;28;20018;-90
2022/09/23 08:20:01;;;;;;;;;;;;;;;8.17;100.00;99772.81;5007078;28;19922;-88
2022/09/23 08:22:27;;;;;;;;;;;;;;;8.16;100.00;99775.50;5006486;28;20296;-91
2022/09/23 08:24:52;;;;;;;;;;;;;;;8.17;100.00;99771.94;5024747;28;19922;-90
2022/09/23 08:27:17;;;;;;;;;;;;;;;8.18;100.00;99776.28;5006432;28;19917;-90
2022/09/23 08:29:42;;;;;;;;;;;;;;;8.18;100.00;99781.56;5004830;28;19921;-90
2022/09/23 08:32:08;;;;;;;;;;;;;;;8.16;100.00;99772.84;5006327;28;19917;-91
2022/09/23 08:34:34;;;;;;;;;;;;;;;8.26;100.00;99771.63;5024265;28;19965;-90
2022/09/23 08:36:59;;;;;;;;;;;;;;;8.23;100.00;99766.44;5023581;28;19917;-87
2022/09/23 08:39:25;;;;;;;;;;;;;;;8.28;100.00;99768.94;5024188;28;20265;-91
2022/09/23 08:42:01;;;;;;;;;;;;;;;8.31;100.00;99772.34;5024240;28;19963;-91
2022/09/23 08:44:41;;;;;;;;;;;;;;;8.33;100.00;99764.38;5004553;28;19917;-90
2022/09/23 08:47:22;;;;;;;;;;;;;;;8.37;100.00;99771.25;5023754;28;19929;-90
2022/09/23 08:49:50;;;;;;;;;;;;;;;8.37;100.00;99765.97;5006034;28;19939;-87
2022/09/23 08:52:38;;;;;;;;;;;;;;;8.38;100.00;99759.78;5022974;28;20476;-89
2022/09/23 08:55:04;;;;;;;;;;;;;;;8.37;100.00;99769.47;4990314;28;19917;-90
2022/09/23 08:57:33;;;;;;;;;;;;;;;8.35;100.00;99770.47;5023568;28;19917;-91
2022/09/23 09:00:00;;;;;;;;;;;;;;;8.33;100.00;99770.50;5005104;28;19917;-89
2022/09/23 09:02:26;;;;;;;;;;;;;;;8.37;100.00;99768.63;5005091;28;19931;-89
2022/09/23 09:04:57;;;;;;;;;;;;;;;8.37;100.00;99763.34;5005774;28;20016;-88
2022/09/23 09:07:33;;;;;;;;;;;;;;;8.49;100.00;99762.97;5023411;28;19964;-91
2022/09/23 09:09:59;;;;;;;;;;;;;;;8.42;100.00;99756.13;5004586;28;19924;-91
2022/09/23 09:12:31;;;;;;;;;;;;;;;8.46;100.00;99752.50;5005966;28;20116;-90
2022/09/23 09:15:00;;;;;;;;;;;;;;;8.47;100.00;99753.34;5003653;28;19983;-90
2022/09/23 09:17:35;;;;;;;;;;;;;;;8.48;100.00;99744.53;5004553;28;20020;-90
2022/09/23 09:20:06;;;;;;;;;;;;;;;8.50;100.00;99747.97;5005358;28;19944;-90
2022/09/23 09:22:47;;;;;;;;;;;;;;;8.57;100.00;99745.97;5005343;28;19925;-90
2022/09/23 09:25:18;;;;;;;;;;;;;;;8.47;100.00;99746.31;5004787;28;20008;-88
2022/09/23 09:27:44;;;;;;;;;;;;;;;8.51;100.00;99744.41;5005864;28;19921;-90
2022/09/23 09:30:15;;;;;;;;;;;;;;;8.54;100.00;99739.03;5022099;28;19991;-90
2022/09/23 09:32:45;;;;;;;;;;;;;;;8.52;100.00;99741.72;5005314;28;19917;-89
2022/09/23 09:35:18;;;;;;;;;;;;;;;8.51;100.00;99745.28;5005628;28;19921;-91
2022/09/23 09:37:45;;;;;;;;;;;;;;;8.53;100.00;99734.66;5022739;28;19921;-87
2022/09/23 09:40:11;;;;;;;;;;;;;;;8.68;100.00;99739.41;5004313;28;19918;-89
2022/09/23 09:42:41;;;;;;;;;;;;;;;8.62;100.00;99736.97;5023096;28;20429;-91
2022/09/23 09:45:25;;;;;;;;;;;;;;;8.55;100.00;99738.09;5003432;28;19917;-90
2022/09/23 09:47:59;;;;;;;;;;;;;;;8.54;100.00;99729.31;5022473;28;20008;-90
2022/09/23 09:50:43;;;;;;;;;;;;;;;8.66;100.00;99719.22;5005100;28;20015;-89
2022/09/23 09:53:16;;;;;;;;;;;;;;;8.68;100.00;99720.03;5023124;28;19940;-89
2022/09/23 09:55:41;;;;;;;;;;;;;;;8.71;100.00;99718.16;5020616;28;19928;-88
2022/09/23 09:58:12;;;;;;;;;;;;;;;8.69;100.00;99717.34;5005572;28;19918;-90
2022/09/23 10:00:42;;;;;;;;;;;;;;;8.69;100.00;99719.13;5021369;28;20367;-92
2022/09/23 10:03:13;;;;;;;;;;;;;;;8.61;100.00;99719.41;5004082;28;19972;-89
2022/09/23 10:05:44;;;;;;;;;;;;;;;8.66;100.00;99722.75;5003845;28;19925;-90
2022/09/23 10:08:25;;;;;;;;;;;;;;;8.68;100.00;99717.38;5020377;28;19932;-91
2022/09/23 10:10:53;;;;;;;;;;;;;;;8.70;100.00;99710.28;5004296;28;20199;-90
2022/09/23 10:13:19;;;;;;;;;;;;;;;8.70;100.00;99712.94;5004748;28;19984;-90
2022/09/23 10:15:45;;;;;;;;;;;;;;;8.70;100.00;99707.66;5003056;28;19925;-91
2022/09/23 10:18:23;;;;;;;;;;;;;;;8.71;100.00;99701.44;5004658;28;19964;-90
2022/09/23 10:20:50;;;;;;;;;;;;;;;8.82;100.00;99707.22;5005174;28;20377;-88
2022/09/23 10:23:24;;;;;;;;;;;;;;;8.74;100.00;99703.97;5004261;28;19925;-91
2022/09/23 10:25:56;;;;;;;;;;;;;;;8.79;100.00;99706.44;5004225;28;19917;-90
2022/09/23 10:28:38;;;;;;;;;;;;;;;8.78;100.00;99705.59;5003329;28;19940;-89
2022/09/23 10:31:08;;;;;;;;;;;;;;;8.78;100.00;99694.16;5003383;28;19926;-91
2022/09/23 10:33:38;;;;;;;;;;;;;;;8.90;100.00;99693.69;5022258;28;19927;-90
2022/09/23 10:36:07;;;;;;;;;;;;;;;8.84;100.00;99697.44;5021223;28;19956;-87
2022/09/23 10:38:32;;;;;;;;;;;;;;;8.78;100.00;99700.31;5020931;28;19968;-89
2022/09/23 10:46:44;;;;;;;;;;;;;;;8.89;100.00;99687.56;5012587;28;19921;-90
2022/09/23 10:49:22;;;;;;;;;;;;;;;8.87;100.00;99688.50;5021886;28;20361;-88
2022/09/23 10:51:53;;;;;;;;;;;;;;;8.93;100.00;99684.78;5021489;28;19925;-89
2022/09/23 10:54:28;;;;;;;;;;;;;;;8.89;100.00;99681.41;5003799;28;19943;-86
2022/09/23 10:56:56;;;;;;;;;;;;;;;8.97;100.00;99673.22;5003234;28;19923;-84
2022/09/23 10:59:41;;;;;;;;;;;;;;;8.92;100.00;99673.38;5002860;28;19972;-90
2022/09/23 11:02:20;;;;;;;;;;;;;;;8.93;100.00;99671.59;5003984;28;19918;-87
2022/09/23 11:04:55;;;;;;;;;;;;;;;8.89;100.00;99669.06;5003578;28;19918;-86
2022/09/23 11:07:35;;;;;;;;;;;;;;;8.97;100.00;99666.13;5004049;28;19917;-86
2022/09/23 11:10:13;;;;;;;;;;;;;;;8.97;100.00;99663.47;5004437;28;20011;-86
2022/09/23 11:13:06;;;;;;;;;;;;;;;8.99;100.00;99663.44;5019972;28;19940;-86
2022/09/23 11:15:52;;;;;;;;;;;;;;;8.95;100.00;99661.81;4997189;28;20427;-86
2022/09/23 11:18:36;;;;;;;;;;;;;;;8.91;100.00;99658.44;5004430;28;20299;-87
2022/09/23 11:21:20;;;;;;;;;;;;;;;8.89;100.00;99657.63;5020462;28;19917;-89
2022/09/23 11:23:45;;;;;;;;;;;;;;;8.85;100.00;99654.22;5022184;28;19930;-89
2022/09/23 11:26:23;;;;;;;;;;;;;;;8.90;100.00;99651.41;5007763;28;20362;-88
2022/09/23 11:28:59;;;;;;;;;;;;;;;8.94;100.00;99649.53;5023289;28;19928;-87
2022/09/23 11:31:28;;;;;;;;;;;;;;;8.90;100.00;99649.66;5006438;28;20395;-88
2022/09/23 11:34:15;;;;;;;;;;;;;;;8.98;100.00;99654.63;5007727;28;20007;-85
2022/09/23 11:36:45;;;;;;;;;;;;;;;9.00;100.00;99646.63;5024926;28;19999;-87
2022/09/23 11:39:34;;;;;;;;;;;;;;;8.98;100.00;99641.41;5024320;28;20295;-87
2022/09/23 11:42:00;;;;;;;;;;;;;;;8.97;100.00;99638.84;4994840;28;20295;-89
2022/09/23 11:44:32;;;;;;;;;;;;;;;8.97;100.00;99630.91;5022279;28;19921;-87
2022/09/23 11:47:03;;;;;;;;;;;;;;;8.99;100.00;99619.34;5023966;28;20390;-85
2022/09/23 11:49:32;;;;;;;;;;;;;;;8.99;100.00;99619.34;5006459;28;20364;-85
2022/09/23 11:52:03;;;;;;;;;;;;;;;9.02;100.00;99616.59;5023986;28;19917;-85
2022/09/23 11:54:34;;;;;;;;;;;;;;;9.03;100.00;99610.41;5023973;28;20017;-87
2022/09/23 11:57:02;;;;;;;;;;;;;;;8.99;100.00;99613.22;5025021;28;19921;-87
2022/09/23 11:59:34;;;;;;;;;;;;;;;8.99;100.00;99603.50;5022258;28;19921;-85
2022/09/23 12:01:59;;;;;;;;;;;;;;;9.03;100.00;99615.69;5024032;28;19952;-88
2022/09/23 12:04:29;;;;;;;;;;;;;;;9.03;100.00;99609.50;5024825;28;19959;-86
2022/09/23 12:07:00;;;;;;;;;;;;;;;9.04;100.00;99604.16;5024702;28;20016;-87
2022/09/23 12:09:45;;;;;;;;;;;;;;;9.08;100.00;99610.22;5006948;28;19921;-87
2022/09/23 12:12:10;;;;;;;;;;;;;;;9.07;100.00;99600.56;5007242;28;19967;-86
2022/09/23 12:14:42;;;;;;;;;;;;;;;9.06;100.00;99609.41;5022859;28;19960;-85
2022/09/23 12:17:26;;;;;;;;;;;;;;;9.11;100.00;99596.00;5006445;28;20357;-89
2022/09/23 12:20:01;;;;;;;;;;;;;;;9.07;100.00;99600.56;5006517;28;19918;-90
2022/09/23 12:22:26;;;;;;;;;;;;;;;9.11;100.00;99591.59;5006662;28;20004;-90
2022/09/23 12:25:11;;;;;;;;;;;;;;;9.07;100.00;99592.63;5006369;28;20021;-90
2022/09/23 12:27:42;;;;;;;;;;;;;;;9.13;100.00;99597.66;5023339;28;19957;-91
2022/09/23 12:30:13;;;;;;;;;;;;;;;9.05;100.00;99590.03;5005491;28;19913;-90
2022/09/23 12:32:41;;;;;;;;;;;;;;;9.12;100.00;99588.00;5006215;28;19917;-89
2022/09/23 12:35:20;;;;;;;;;;;;;;;9.05;100.00;99584.75;5005764;28;19918;-91
2022/09/23 12:37:53;;;;;;;;;;;;;;;9.08;100.00;99581.16;5024654;28;19980;-92
2022/09/23 12:40:42;;;;;;;;;;;;;;;9.16;100.00;99576.41;5006704;28;20353;-91
2022/09/23 12:43:29;;;;;;;;;;;;;;;9.14;100.00;99575.59;5006486;28;19941;-91
2022/09/23 12:46:30;;;;;;;;;;;;;;;9.17;100.00;99571.97;5005583;28;20004;-87
2022/09/23 12:49:00;;;;;;;;;;;;;;;9.17;100.00;99564.88;4915253;29;19930;-90
2022/09/23 12:51:35;;;;;;;;;;;;;;;9.16;100.00;99568.47;4986724;28;20187;-90
2022/09/23 12:54:03;;;;;;;;;;;;;;;9.22;100.00;99568.22;5022779;28;19999;-90
2022/09/23 12:56:35;;;;;;;;;;;;;;;9.14;100.00;99572.94;5006026;28;19924;-90
2022/09/23 12:59:10;;;;;;;;;;;;;;;9.14;100.00;99572.09;5022660;28;20395;-91
2022/09/23 13:01:36;;;;;;;;;;;;;;;9.16;100.00;99567.59;5022877;28;19917;-90
2022/09/23 13:06:51;;;;;;;;;;;;;;;9.16;100.00;99568.47;5023452;28;20467;-90
2022/09/23 13:09:29;;;;;;;;;;;;;;;9.18;100.00;99560.47;5021806;28;19960;-90
2022/09/23 13:12:00;;;;;;;;;;;;;;;9.23;100.00;99564.66;5005071;28;19948;-90
2022/09/23 13:14:27;;;;;;;;;;;;;;;9.26;100.00;99561.03;5019626;28;20373;-90
2022/09/23 13:16:52;;;;;;;;;;;;;;;9.24;100.00;99560.25;5004458;28;19988;-91
2022/09/23 13:19:27;;;;;;;;;;;;;;;9.30;100.00;99562.59;5005317;28;20368;-90
2022/09/23 13:21:52;;;;;;;;;;;;;;;9.30;100.00;99559.97;5005258;28;19940;-90
2022/09/23 13:24:32;;;;;;;;;;;;;;;9.33;100.00;99558.97;5005210;28;19921;-89
2022/09/23 13:27:00;;;;;;;;;;;;;;;9.33;100.00;99558.97;5021500;28;19917;-90
2022/09/23 13:29:33;;;;;;;;;;;;;;;9.36;100.00;99553.56;5019706;28;19926;-89
2022/09/23 13:32:00;;;;;;;;;;;;;;;9.32;100.00;99547.56;5022844;28;19937;-89
2022/09/23 13:34:29;;;;;;;;;;;;;;;9.28;100.00;99556.53;5005058;28;19917;-89
2022/09/23 13:36:54;;;;;;;;;;;;;;;9.26;100.00;99546.00;5003770;28;19939;-90
2022/09/23 13:39:23;;;;;;;;;;;;;;;9.32;100.00;99536.97;5022571;28;19920;-91
2022/09/23 13:41:51;;;;;;;;;;;;;;;9.30;100.00;99538.81;5005219;28;20012;-90
2022/09/23 13:44:21;;;;;;;;;;;;;;;9.26;100.00;99543.38;4997604;28;19929;-90
2022/09/23 13:46:50;;;;;;;;;;;;;;;9.29;100.00;99533.63;5021500;28;20456;-91
2022/09/23 13:49:35;;;;;;;;;;;;;;;9.35;100.00;99530.69;5022408;28;19929;-90
2022/09/23 13:52:01;;;;;;;;;;;;;;;9.27;100.00;99534.53;5005257;28;19921;-90
2022/09/23 13:54:32;;;;;;;;;;;;;;;9.31;100.00;99529.09;5022155;28;20012;-91
2022/09/23 13:56:58;;;;;;;;;;;;;;;9.36;100.00;99522.69;5003945;28;19975;-90
2022/09/23 13:59:29;;;;;;;;;;;;;;;9.44;100.00;99522.38;5003607;28;19913;-90
2022/09/23 14:02:24;;;;;;;;;;;;;;;9.39;100.00;99524.34;5003718;28;19983;-91
2022/09/23 14:04:49;;;;;;;;;;;;;;;9.40;100.00;99523.44;5019212;28;19963;-88
2022/09/23 14:07:17;;;;;;;;;;;;;;;9.31;100.00;99518.53;5004601;28;19925;-89
2022/09/23 14:09:43;;;;;;;;;;;;;;;9.32;100.00;99515.81;5004993;28;20319;-91
2022/09/23 14:12:09;;;;;;;;;;;;;;;9.31;100.00;99519.38;5004466;28;19921;-91
2022/09/23 14:14:36;;;;;;;;;;;;;;;9.33;100.00;99511.38;5019756;28;19917;-90
2022/09/23 14:17:05;;;;;;;;;;;;;;;9.32;100.00;99510.53;5004033;28;20129;-91
2022/09/23 14:19:30;;;;;;;;;;;;;;;9.34;100.00;99507.84;5022250;28;20315;-91
2022/09/23 14:21:55;;;;;;;;;;;;;;;9.35;100.00;99493.66;5022205;28;19921;-91
2022/09/23 14:24:24;;;;;;;;;;;;;;;9.42;100.00;99495.13;5004722;28;19921;-89
2022/09/23 14:26:52;;;;;;;;;;;;;;;9.43;100.00;99500.38;5003713;28;20312;-91
2022/09/23 14:29:19;;;;;;;;;;;;;;;9.44;100.00;99509.16;5003430;28;20007;-90
2022/09/23 14:31:55;;;;;;;;;;;;;;;9.49;100.00;99512.44;5004708;28;19917;-90
2022/09/23 14:34:39;;;;;;;;;;;;;;;9.53;100.00;99506.13;5021175;28;19927;-90
2022/09/23 14:39:55;;;;;;;;;;;;;;;9.46;100.00;99502.00;5022092;28;20344;-91
2022/09/23 14:42:20;;;;;;;;;;;;;;;9.35;100.00;99498.94;5017278;28;19921;-90
2022/09/23 14:44:47;;;;;;;;;;;;;;;9.45;100.00;99490.56;5020738;28;19933;-90
2022/09/23 14:47:13;;;;;;;;;;;;;;;9.38;100.00;99494.41;5004113;28;19925;-89
2022/09/23 14:50:35;;;;;;;;;;;;;;;9.40;100.00;99491.72;5003960;28;20394;-91
2022/09/23 14:52:30;;;;;;;;;;;;;;;9.48;100.00;99494.88;5021117;28;19971;-90
2022/09/23 14:54:55;;;;;;;;;;;;;;;9.35;100.00;99488.38;5004033;28;19929;-90
2022/09/23 14:57:21;;;;;;;;;;;;;;;9.25;100.00;99488.78;5022013;28;19924;-90
2022/09/23 15:00:13;;;;;;;;;;;;;;;9.33;100.00;99487.59;5005260;28;19923;-90
2022/09/23 15:02:41;;;;;;;;;;;;;;;9.36;100.00;99482.19;5003806;28;19924;-89
2022/09/23 15:05:16;;;;;;;;;;;;;;;9.31;100.00;99476.22;5008156;28;20377;-91
2022/09/23 15:07:43;;;;;;;;;;;;;;;9.31;100.00;99470.94;5007094;28;19918;-90
2022/09/23 15:10:15;;;;;;;;;;;;;;;9.32;100.00;99462.94;5001949;28;20277;-91
2022/09/23 15:12:41;;;;;;;;;;;;;;;9.29;100.00;99464.88;5025366;28;20354;-91
2022/09/23 15:15:11;;;;;;;;;;;;;;;9.30;100.00;99472.72;5023985;28;20283;-91
2022/09/23 15:17:36;;;;;;;;;;;;;;;9.39;100.00;99471.47;5007867;28;19967;-91
2022/09/23 15:20:07;;;;;;;;;;;;;;;9.35;100.00;99476.03;5006588;28;19973;-92
2022/09/23 15:22:41;;;;;;;;;;;;;;;9.44;100.00;99477.41;5024501;28;20377;-92
2022/09/23 15:25:29;;;;;;;;;;;;;;;9.40;100.00;99465.25;5007537;28;19925;-92
2022/09/23 15:28:15;;;;;;;;;;;;;;;9.36;100.00;99461.88;5007774;28;19974;-91
2022/09/23 15:30:40;;;;;;;;;;;;;;;9.37;100.00;99470.69;4998120;28;19918;-92
2022/09/23 15:33:05;;;;;;;;;;;;;;;9.44;100.00;99472.13;5008071;28;19975;-87
2022/09/23 15:35:31;;;;;;;;;;;;;;;9.46;100.00;99467.63;5007570;28;20055;-91
2022/09/23 15:37:59;;;;;;;;;;;;;;;9.42;100.00;99474.84;5007600;28;20079;-92
2022/09/23 15:40:28;;;;;;;;;;;;;;;9.43;100.00;99467.78;5007366;28;19918;-87
2022/09/23 15:43:06;;;;;;;;;;;;;;;9.42;100.00;99460.75;5006495;28;19923;-87
2022/09/23 15:45:34;;;;;;;;;;;;;;;9.53;100.00;99457.66;5005520;28;20364;-87
2022/09/23 15:48:07;;;;;;;;;;;;;;;9.49;100.00;99456.91;5025188;28;19925;-88
2022/09/23 15:50:35;;;;;;;;;;;;;;;9.32;100.00;99451.50;5008204;28;20384;-86
2022/09/23 15:53:01;;;;;;;;;;;;;;;9.40;100.00;99450.25;5023414;28;19918;-87
2022/09/23 15:55:26;;;;;;;;;;;;;;;9.39;100.00;99450.31;5008540;28;19928;-88
2022/09/23 15:57:51;;;;;;;;;;;;;;;9.42;100.00;99443.09;5007151;28;19917;-87
2022/09/23 16:00:17;;;;;;;;;;;;;;;9.39;100.00;99437.94;5005807;28;19929;-88
2022/09/23 16:02:46;;;;;;;;;;;;;;;9.42;100.00;99436.97;5006948;28;19923;-87
2022/09/23 16:05:34;;;;;;;;;;;;;;;9.45;100.00;99436.84;5006612;28;19921;-91
2022/09/23 16:08:00;;;;;;;;;;;;;;;9.40;100.00;99438.81;5003656;28;19940;-88
2022/09/23 16:10:26;;;;;;;;;;;;;;;9.43;100.00;99449.28;5005418;28;19921;-87
2022/09/23 16:12:53;;;;;;;;;;;;;;;9.34;100.00;99437.28;5024358;28;19921;-87
2022/09/23 16:15:19;;;;;;;;;;;;;;;9.42;100.00;99435.16;5023341;28;19922;-87
2022/09/23 16:17:44;;;;;;;;;;;;;;;9.52;100.00;99443.56;5024024;28;19917;-88
2022/09/23 16:20:10;;;;;;;;;;;;;;;9.53;100.00;99460.31;5024392;28;19921;-87
2022/09/23 16:22:36;;;;;;;;;;;;;;;9.49;100.00;99450.78;5006517;28;20399;-87
2022/09/23 16:25:01;;;;;;;;;;;;;;;9.52;100.00;99451.47;5000269;28;19921;-87
2022/09/23 16:27:29;;;;;;;;;;;;;;;9.54;100.00;99448.78;5005848;28;20311;-93
2022/09/23 16:29:55;;;;;;;;;;;;;;;9.55;100.00;99447.84;5005230;28;20352;-88
2022/09/23 16:32:21;;;;;;;;;;;;;;;9.55;100.00;99442.56;5024274;28;19925;-88
2022/09/23 16:34:47;;;;;;;;;;;;;;;9.59;100.00;99439.72;5023820;28;19918;-88
2022/09/23 16:37:19;;;;;;;;;;;;;;;9.58;100.00;99432.72;5006202;28;19921;-88
2022/09/23 16:39:47;;;;;;;;;;;;;;;9.62;100.00;99429.00;5005298;28;19924;-88
2022/09/23 16:42:12;;;;;;;;;;;;;;;9.64;100.00;99418.38;5023179;28;20411;-89
2022/09/23 16:44:40;;;;;;;;;;;;;;;9.58;100.00;99426.56;5003297;28;19921;-88
2022/09/23 16:47:08;;;;;;;;;;;;;;;9.54;100.00;99425.84;5023410;28;20293;-87
2022/09/23 16:49:37;;;;;;;;;;;;;;;9.54;100.00;99430.25;5006138;28;19921;-87
2022/09/23 16:52:02;;;;;;;;;;;;;;;9.53;100.00;99432.06;5023911;28;19969;-86
2022/09/23 16:54:29;;;;;;;;;;;;;;;9.60;100.00;99430.00;5004413;28;20446;-93
2022/09/23 16:57:08;;;;;;;;;;;;;;;9.60;100.00;99422.91;5022980;28;19921;-93
2022/09/23 17:05:01;;;;;;;;;;;;;;;9.56;100.00;99431.06;5022688;28;19971;-86
2022/09/23 17:07:27;;;;;;;;;;;;;;;9.49;100.00;99427.81;5021913;28;19929;-86
2022/09/23 17:09:52;;;;;;;;;;;;;;;9.54;100.00;99433.78;5021953;28;19924;-89
2022/09/23 17:12:26;;;;;;;;;;;;;;;9.55;100.00;99437.28;5005750;28;20331;-89
2022/09/23 17:14:52;;;;;;;;;;;;;;;9.57;100.00;99428.38;5020094;28;20012;-89
2022/09/23 17:17:18;;;;;;;;;;;;;;;9.66;100.00;99420.94;5023101;28;20427;-90
2022/09/23 17:19:43;;;;;;;;;;;;;;;9.66;100.00;99431.53;5021617;28;20012;-89
2022/09/23 17:22:08;;;;;;;;;;;;;;;9.51;100.00;99439.22;5003123;28;20292;-86
2022/09/23 17:24:34;;;;;;;;;;;;;;;9.51;100.00;99436.56;5023403;28;19918;-85
2022/09/23 17:26:59;;;;;;;;;;;;;;;9.55;100.00;99437.28;5023022;28;19921;-92
2022/09/23 17:29:25;;;;;;;;;;;;;;;9.54;100.00;99435.56;5003972;28;19923;-88
2022/09/23 17:31:58;;;;;;;;;;;;;;;9.54;100.00;99435.56;5022988;28;19932;-91
2022/09/23 17:34:27;;;;;;;;;;;;;;;9.56;100.00;99436.38;5022442;28;19921;-95
2022/09/23 17:36:55;;;;;;;;;;;;;;;9.55;100.00;99440.78;5021951;28;19924;-87
2022/09/23 17:39:20;;;;;;;;;;;;;;;9.49;100.00;99442.84;5020840;28;19929;-90
2022/09/23 17:41:46;;;;;;;;;;;;;;;9.51;100.00;99444.50;5023876;28;19917;-87
2022/09/23 17:44:11;;;;;;;;;;;;;;;9.55;100.00;99446.06;5018119;28;20295;-86
2022/09/23 17:46:36;;;;;;;;;;;;;;;9.69;100.00;99441.97;5019355;28;19921;-87
2022/09/23 17:49:02;;;;;;;;;;;;;;;9.70;100.00;99438.38;5004758;28;19917;-89
2022/09/23 17:51:28;;;;;;;;;;;;;;;9.70;100.00;99427.78;5021076;28;19935;-87
2022/09/23 17:53:54;;;;;;;;;;;;;;;9.65;100.00;99443.88;5021834;28;19921;-88
2022/09/23 17:56:23;;;;;;;;;;;;;;;9.57;100.00;99432.78;5004805;28;19917;-86
2022/09/23 17:58:49;;;;;;;;;;;;;;;9.59;100.00;99438.88;5015905;28;20007;-87
2022/09/23 18:01:15;;;;;;;;;;;;;;;9.54;100.00;99433.78;5017421;28;19925;-85
2022/09/23 18:03:44;;;;;;;;;;;;;;;9.52;100.00;99429.47;5004747;28;19924;-92
2022/09/23 18:06:20;;;;;;;;;;;;;;;9.62;100.00;99438.72;5003689;28;20020;-86
2022/09/23 18:08:46;;;;;;;;;;;;;;;9.59;100.00;99429.16;5023208;28;19917;-88
2022/09/23 18:11:25;;;;;;;;;;;;;;;9.64;100.00;99432.44;5001868;28;19943;-87
2022/09/23 18:13:52;;;;;;;;;;;;;;;9.63;100.00;99429.84;5000189;28;19971;-91
2022/09/23 18:16:18;;;;;;;;;;;;;;;9.54;100.00;99425.84;5020473;28;20831;-87
2022/09/23 18:18:50;;;;;;;;;;;;;;;9.58;100.00;99426.56;5017437;28;19922;-88
2022/09/23 18:21:15;;;;;;;;;;;;;;;9.62;100.00;99429.00;5001309;28;19928;-87
2022/09/23 18:23:40;;;;;;;;;;;;;;;9.57;100.00;99431.00;5004076;28;19922;-88
2022/09/23 18:26:11;;;;;;;;;;;;;;;9.59;100.00;99418.56;5003566;28;19921;-87
2022/09/23 18:28:37;;;;;;;;;;;;;;;9.71;100.00;99416.28;5020688;28;19921;-86
2022/09/23 18:31:02;;;;;;;;;;;;;;;9.68;100.00;99424.38;5001841;28;19972;-88
2022/09/23 18:33:27;;;;;;;;;;;;;;;9.61;100.00;99426.44;5018749;28;19925;-88
2022/09/23 18:36:06;;;;;;;;;;;;;;;9.63;100.00;99425.41;5000605;28;19979;-94
2022/09/23 18:38:31;;;;;;;;;;;;;;;14.96;100.00;99417.31;5019770;28;19922;-89
2022/09/23 18:40:57;;;;;;;;;;;;;;;14.70;100.00;99419.91;5002902;28;19925;-87
2022/09/23 18:43:23;;;;;;;;;;;;;;;11.89;100.00;99417.06;5018482;28;19925;-86
2022/09/23 18:45:58;;;;;;;;;;;;;;;10.83;100.00;99423.41;5001078;28;20015;-87
2022/09/23 18:51:09;;;;;;;;;;;;;;;10.14;100.00;99435.50;5018429;28;20431;-85
2022/09/23 18:53:34;;;;;;;;;;;;;;;9.94;100.00;99437.28;5000888;28;19921;-87
2022/09/23 18:56:07;;;;;;;;;;;;;;;9.85;100.00;99432.41;5002953;28;19926;-86
2022/09/23 18:58:32;;;;;;;;;;;;;;;9.75;100.00;99431.97;5002182;28;19925;-86
2022/09/23 19:01:01;;;;;;;;;;;;;;;9.63;100.00;99433.34;5000597;28;19939;-86
2022/09/23 19:03:27;;;;;;;;;;;;;;;9.50;100.00;99428.69;4999505;28;19929;-89
2022/09/23 19:05:52;;;;;;;;;;;;;;;9.34;100.00;99425.88;5001138;28;20389;-86
2022/09/23 19:08:18;;;;;;;;;;;;;;;9.20;100.00;99427.31;5002217;28;19921;-87
2022/09/23 19:10:43;;;;;;;;;;;;;;;9.15;100.00;99424.00;5019046;28;19980;-85
2022/09/23 19:13:09;;;;;;;;;;;;;;;9.08;100.00;99422.56;5020130;28;20288;-86
2022/09/23 19:15:37;;;;;;;;;;;;;;;9.02;100.00;99421.03;5001954;28;19921;-86
2022/09/23 19:18:02;;;;;;;;;;;;;;;8.98;100.00;99418.56;5017971;28;19952;-87
2022/09/23 19:20:28;;;;;;;;;;;;;;;9.19;100.00;99435.28;5015948;28;19917;-86
2022/09/23 19:22:53;;;;;;;;;;;;;;;9.16;100.00;99430.13;5002759;28;19917;-87
2022/09/23 19:25:18;;;;;;;;;;;;;;;9.19;100.00;99430.00;5001871;28;19947;-87
2022/09/23 19:27:43;;;;;;;;;;;;;;;9.06;100.00;99427.03;5002094;28;19928;-87
2022/09/23 19:30:10;;;;;;;;;;;;;;;8.90;100.00;99425.06;5000242;28;19917;-87
2022/09/23 19:32:35;;;;;;;;;;;;;;;8.57;100.00;99426.41;5003183;28;20454;-87
2022/09/23 19:35:01;;;;;;;;;;;;;;;8.48;100.00;99428.50;5002394;28;19917;-87
2022/09/23 19:37:26;;;;;;;;;;;;;;;8.29;100.00;99423.06;5002314;28;19947;-87
2022/09/23 19:39:51;;;;;;;;;;;;;;;8.16;100.00;99421.81;5001951;28;20373;-87
2022/09/23 19:42:17;;;;;;;;;;;;;;;7.99;100.00;99425.97;5002502;28;20272;-87
2022/09/23 19:44:42;;;;;;;;;;;;;;;8.06;100.00;99423.97;5002795;28;19929;-88
2022/09/23 19:47:14;;;;;;;;;;;;;;;8.04;100.00;99425.81;5021508;28;20008;-86
2022/09/23 19:49:39;;;;;;;;;;;;;;;8.03;100.00;99424.09;5004116;28;20024;-87
2022/09/23 19:52:04;;;;;;;;;;;;;;;8.22;100.00;99415.44;5006279;28;20024;-87
2022/09/23 19:54:29;;;;;;;;;;;;;;;8.39;100.00;99425.34;5005710;28;19921;-87
2022/09/23 19:56:55;;;;;;;;;;;;;;;8.53;100.00;99415.97;5006188;28;19931;-87
2022/09/23 19:59:20;;;;;;;;;;;;;;;8.68;100.00;99416.28;5020978;28;19967;-86
2022/09/23 20:01:46;;;;;;;;;;;;;;;8.77;100.00;99413.25;5003561;28;19925;-86
2022/09/23 20:04:12;;;;;;;;;;;;;;;8.86;100.00;99418.16;5022166;28;20341;-87
2022/09/23 20:06:37;;;;;;;;;;;;;;;8.88;100.00;99405.75;5004103;28;19925;-86
2022/09/23 20:09:03;;;;;;;;;;;;;;;8.93;100.00;99410.84;5003776;28;19927;-89
2022/09/23 20:11:28;;;;;;;;;;;;;;;8.97;100.00;99406.31;5004587;28;19921;-87
2022/09/23 20:14:00;;;;;;;;;;;;;;;9.04;100.00;99405.94;5018079;28;19926;-86
2022/09/23 20:16:26;;;;;;;;;;;;;;;9.06;100.00;99406.75;5006096;28;20383;-86
2022/09/23 20:18:52;;;;;;;;;;;;;;;9.10;100.00;99410.13;5004953;28;19921;-87
2022/09/23 20:21:17;;;;;;;;;;;;;;;9.14;100.00;99408.22;5021803;28;19924;-86
2022/09/23 20:23:43;;;;;;;;;;;;;;;9.15;100.00;99410.78;4999635;28;19975;-86
2022/09/23 20:28:52;;;;;;;;;;;;;;;9.19;100.00;99408.84;5021574;28;19967;-87
2022/09/23 20:31:23;;;;;;;;;;;;;;;9.20;100.00;99403.50;5003842;28;20285;-89
2022/09/23 20:33:57;;;;;;;;;;;;;;;9.23;100.00;99411.31;5003036;28;20297;-85
2022/09/23 20:36:26;;;;;;;;;;;;;;;9.24;100.00;99399.81;5005608;28;20357;-87
2022/09/23 20:38:55;;;;;;;;;;;;;;;9.25;100.00;99400.66;5020787;28;19968;-86
2022/09/23 20:41:21;;;;;;;;;;;;;;;9.26;100.00;99399.75;5002312;28;19925;-87
2022/09/23 20:43:47;;;;;;;;;;;;;;;9.27;100.00;99401.47;5021687;28;19924;-85
2022/09/23 20:46:14;;;;;;;;;;;;;;;9.29;100.00;99399.63;5024600;28;19929;-86
2022/09/23 20:48:39;;;;;;;;;;;;;;;9.34;100.00;99399.44;5020879;28;19991;-88
2022/09/23 20:51:04;;;;;;;;;;;;;;;9.32;100.00;99398.59;5003652;28;19964;-87
2022/09/23 20:53:35;;;;;;;;;;;;;;;11.24;100.00;99388.63;5018325;28;19912;-87
2022/09/23 20:56:20;;;;;;;;;;;;;;;10.17;100.00;99390.34;4969358;28;19922;-88
2022/09/23 20:58:49;;;;;;;;;;;;;;;9.77;100.00;99389.56;4970115;28;19937;-91
2022/09/23 21:01:20;;;;;;;;;;;;;;;9.65;100.00;99385.66;4970866;28;19922;-90
2022/09/23 21:03:46;;;;;;;;;;;;;;;9.61;100.00;99390.25;4955540;28;19958;-93
2022/09/23 21:06:13;;;;;;;;;;;;;;;9.60;100.00;99388.53;4955362;28;19945;-87